createdAt,value
2022-10-19T00:02:18.524Z,102043.59
2022-10-19T00:04:49.103Z,102043.84
2022-10-19T00:07:19.573Z,102041.33
2022-10-19T00:09:50.059Z,102046.80
2022-10-19T00:12:20.423Z,102041.58
2022-10-19T00:14:51.078Z,102040.54
2022-10-19T00:17:21.424Z,102041.19
2022-10-19T00:19:52.291Z,102041.38
2022-10-19T00:22:23.026Z,102045.45
2022-10-19T00:24:54.026Z,102043.55
2022-10-19T00:27:24.377Z,102043.56
2022-10-19T00:29:54.802Z,102049.36
2022-10-19T00:32:25.115Z,102051.05
2022-10-19T00:34:55.535Z,102054.91
2022-10-19T00:37:26.009Z,102060.55
2022-10-19T00:39:56.780Z,102065.23
2022-10-19T00:42:27.366Z,102068.82
2022-10-19T00:45:04.412Z,102064.70
2022-10-19T00:47:35.548Z,102063.57
2022-10-19T00:50:07.033Z,102063.02
2022-10-19T00:52:37.719Z,102062.98
2022-10-19T00:55:11.882Z,102061.34
2022-10-19T00:57:42.377Z,102057.35
2022-10-19T01:00:13.999Z,102057.33
2022-10-19T01:02:44.792Z,102055.12
2022-10-19T01:05:17.149Z,102051.89
2022-10-19T01:07:47.961Z,102048.95
2022-10-19T01:10:22.318Z,102043.60
2022-10-19T01:13:06.451Z,102040.74
2022-10-19T01:15:46.750Z,102042.75
2022-10-19T01:18:23.093Z,102042.02
2022-10-19T01:21:13.154Z,102036.80
2022-10-19T01:24:10.871Z,102032.61
2022-10-19T01:27:06.486Z,102033.45
2022-10-19T01:29:53.069Z,102032.04
2022-10-19T01:32:32.686Z,102039.56
2022-10-19T01:35:11.156Z,102041.09
2022-10-19T01:37:49.875Z,102042.73
2022-10-19T01:40:30.636Z,102046.98
2022-10-19T01:43:05.534Z,102049.88
2022-10-19T01:45:43.867Z,102049.39
2022-10-19T01:48:18.631Z,102047.96
2022-10-19T01:50:55.151Z,102042.45
2022-10-19T01:53:28.513Z,102039.91
2022-10-19T01:56:00.932Z,102039.82
2022-10-19T01:58:36.634Z,102040.36
2022-10-19T02:03:47.008Z,102037.83
2022-10-19T02:06:17.817Z,102033.46
2022-10-19T02:08:50.311Z,102033.42
2022-10-19T02:11:22.774Z,102031.65
2022-10-19T02:13:57.644Z,102036.20
2022-10-19T02:16:31.733Z,102039.48
2022-10-19T02:19:04.148Z,102041.31
2022-10-19T02:21:34.995Z,102039.80
2022-10-19T02:24:06.051Z,102041.33
2022-10-19T02:26:36.921Z,102038.08
2022-10-19T02:29:08.005Z,102041.30
2022-10-19T02:31:38.983Z,102038.02
2022-10-19T02:34:10.318Z,102034.56
2022-10-19T02:36:41.094Z,102039.45
2022-10-19T02:39:11.668Z,102041.61
2022-10-19T02:41:47.003Z,102040.30
2022-10-19T02:44:23.969Z,102039.93
2022-10-19T02:47:01.556Z,102043.64
2022-10-19T02:49:35.287Z,102048.39
2022-10-19T02:52:07.306Z,102047.09
2022-10-19T02:54:38.180Z,102044.50
2022-10-19T02:57:18.425Z,102045.59
2022-10-19T02:59:49.686Z,102047.58
2022-10-19T03:02:21.517Z,102047.84
2022-10-19T03:04:52.698Z,102052.91
2022-10-19T03:07:24.006Z,102050.56
2022-10-19T03:09:54.433Z,102049.48
2022-10-19T03:12:24.756Z,102051.36
2022-10-19T03:14:55.157Z,102052.58
2022-10-19T03:17:25.532Z,102052.89
2022-10-19T03:19:56.069Z,102052.42
2022-10-19T03:22:26.428Z,102050.33
2022-10-19T03:24:56.839Z,102053.55
2022-10-19T03:27:27.286Z,102046.29
2022-10-19T03:29:58.294Z,102053.19
2022-10-19T03:32:29.194Z,102057.71
2022-10-19T03:34:59.603Z,102060.31
2022-10-19T03:37:29.936Z,102062.68
2022-10-19T03:40:00.401Z,102063.16
2022-10-19T03:42:31.318Z,102066.34
2022-10-19T03:45:02.494Z,102064.52
2022-10-19T03:47:33.521Z,102070.64
2022-10-19T03:50:06.106Z,102065.13
2022-10-19T03:52:36.831Z,102064.64
2022-10-19T03:55:09.110Z,102066.08
2022-10-19T03:57:39.540Z,102063.14
2022-10-19T04:00:12.929Z,102060.39
2022-10-19T04:02:43.302Z,102062.94
2022-10-19T04:05:14.058Z,102066.19
2022-10-19T04:07:44.662Z,102066.69
2022-10-19T04:10:15.652Z,102071.08
2022-10-19T04:12:49.428Z,102075.11
2022-10-19T04:15:23.580Z,102076.97
2022-10-19T04:17:54.260Z,102077.75
2022-10-19T04:20:25.046Z,102080.80
2022-10-19T04:22:56.744Z,102079.88
2022-10-19T04:25:27.829Z,102080.28
2022-10-19T04:27:59.073Z,102079.73
2022-10-19T04:30:29.934Z,102079.77
2022-10-19T04:33:00.394Z,102077.71
2022-10-19T04:35:31.497Z,102080.89
2022-10-19T04:38:02.557Z,102080.61
2022-10-19T04:40:35.002Z,102078.77
2022-10-19T04:43:06.630Z,102079.02
2022-10-19T04:45:39.388Z,102081.80
2022-10-19T04:48:10.061Z,102083.73
2022-10-19T04:50:41.321Z,102093.52
2022-10-19T04:53:12.236Z,102093.53
2022-10-19T04:55:44.576Z,102091.34
2022-10-19T04:58:15.233Z,102093.60
2022-10-19T05:00:46.258Z,102089.88
2022-10-19T05:03:18.276Z,102091.93
2022-10-19T05:05:48.901Z,102092.55
2022-10-19T05:08:19.501Z,102093.05
2022-10-19T05:10:50.480Z,102094.19
2022-10-19T05:13:21.501Z,102095.11
2022-10-19T05:15:59.760Z,102090.96
2022-10-19T05:18:31.507Z,102093.63
2022-10-19T05:21:06.605Z,102091.27
2022-10-19T05:23:37.467Z,102091.30
2022-10-19T05:26:09.511Z,102088.86
2022-10-19T05:28:40.670Z,102090.15
2022-10-19T05:31:13.830Z,102092.81
2022-10-19T05:33:45.143Z,102093.68
2022-10-19T05:36:21.190Z,102094.58
2022-10-19T05:38:53.768Z,102086.06
2022-10-19T05:41:25.825Z,102084.86
2022-10-19T05:43:57.458Z,102088.17
2022-10-19T05:46:29.410Z,102085.80
2022-10-19T05:49:01.061Z,102084.85
2022-10-19T05:51:32.028Z,102084.42
2022-10-19T05:54:02.403Z,102087.66
2022-10-19T05:56:33.802Z,102086.88
2022-10-19T05:59:06.242Z,102090.16
2022-10-19T06:01:37.443Z,102096.18
2022-10-19T06:04:08.108Z,102096.15
2022-10-19T06:06:39.036Z,102098.65
2022-10-19T06:09:09.623Z,102095.48
2022-10-19T06:11:42.416Z,102095.36
2022-10-19T06:14:16.223Z,102100.98
2022-10-19T06:16:47.069Z,102102.77
2022-10-19T06:19:17.763Z,102104.27
2022-10-19T06:21:48.524Z,102103.64
2022-10-19T06:24:19.338Z,102106.38
2022-10-19T06:26:49.802Z,102109.48
2022-10-19T06:29:20.409Z,102109.71
2022-10-19T06:31:52.159Z,102109.96
2022-10-19T06:34:22.811Z,102113.90
2022-10-19T06:36:53.224Z,102115.17
2022-10-19T06:39:23.535Z,102118.60
2022-10-19T06:41:54.030Z,102114.17
2022-10-19T06:44:24.461Z,102115.77
2022-10-19T06:46:54.928Z,102116.45
2022-10-19T06:49:25.274Z,102120.45
2022-10-19T06:51:55.609Z,102116.17
2022-10-19T06:54:26.153Z,102115.45
2022-10-19T06:56:56.865Z,102116.05
2022-10-19T06:59:27.354Z,102122.32
2022-10-19T07:01:57.685Z,102124.40
2022-10-19T07:04:28.067Z,102126.71
2022-10-19T07:06:58.454Z,102130.64
2022-10-19T07:09:28.984Z,102133.37
2022-10-19T07:11:59.327Z,102136.83
2022-10-19T07:14:29.754Z,102139.26
2022-10-19T07:17:00.154Z,102142.77
2022-10-19T07:19:30.945Z,102149.84
2022-10-19T07:22:01.276Z,102146.13
2022-10-19T07:24:31.940Z,102142.92
2022-10-19T07:27:02.345Z,102148.54
2022-10-19T07:29:33.134Z,102146.55
2022-10-19T07:32:03.589Z,102142.58
2022-10-19T07:34:34.210Z,102149.84
2022-10-19T07:37:04.846Z,102152.02
2022-10-19T07:39:35.354Z,102155.89
2022-10-19T07:42:08.128Z,102155.46
2022-10-19T07:44:38.925Z,102153.84
2022-10-19T07:47:10.419Z,102151.39
2022-10-19T07:49:40.827Z,102153.46
2022-10-19T07:52:11.566Z,102155.05
2022-10-19T07:54:42.588Z,102157.76
2022-10-19T07:57:15.577Z,102160.17
2022-10-19T07:59:45.967Z,102164.33
2022-10-19T08:02:18.646Z,102165.27
2022-10-19T08:05:00.781Z,102162.27
2022-10-19T08:07:33.583Z,102167.63
2022-10-19T08:10:04.513Z,102170.98
2022-10-19T08:12:38.644Z,102173.48
2022-10-19T08:15:10.673Z,102180.12
2022-10-19T08:17:41.062Z,102174.14
2022-10-19T08:20:13.469Z,102172.89
2022-10-19T08:22:45.300Z,102178.79
2022-10-19T08:25:16.301Z,102179.69
2022-10-19T08:27:47.144Z,102178.92
2022-10-19T08:30:18.269Z,102178.52
2022-10-19T08:32:48.713Z,102180.60
2022-10-19T08:35:19.561Z,102182.40
2022-10-19T08:37:50.275Z,102182.30
2022-10-19T08:40:25.031Z,102179.34
2022-10-19T08:43:03.137Z,102177.70
2022-10-19T08:45:42.936Z,102179.39
2022-10-19T08:48:26.781Z,102177.05
2022-10-19T08:50:59.365Z,102175.67
2022-10-19T08:53:38.612Z,102171.77
2022-10-19T08:56:38.843Z,102173.59
2022-10-19T08:59:21.238Z,102176.33
2022-10-19T09:01:55.369Z,102173.34
2022-10-19T09:04:29.645Z,102170.33
2022-10-19T09:07:14.357Z,102171.58
2022-10-19T09:09:47.424Z,102173.82
2022-10-19T09:12:25.849Z,102171.67
2022-10-19T09:15:01.868Z,102169.52
2022-10-19T09:17:34.187Z,102170.58
2022-10-19T09:20:18.359Z,102168.27
2022-10-19T09:23:00.412Z,102170.94
2022-10-19T09:25:34.855Z,102172.87
2022-10-19T09:28:20.517Z,102179.41
2022-10-19T09:30:54.223Z,102177.27
2022-10-19T09:33:29.468Z,102175.77
2022-10-19T09:36:01.619Z,102172.80
2022-10-19T09:38:32.650Z,102175.73
2022-10-19T09:41:16.597Z,102175.77
2022-10-19T09:43:53.581Z,102172.94
2022-10-19T09:46:38.885Z,102172.56
2022-10-19T09:49:09.889Z,102173.38
2022-10-19T09:51:51.702Z,102174.02
2022-10-19T09:54:35.870Z,102178.48
2022-10-19T09:57:06.992Z,102183.42
2022-10-19T09:59:38.850Z,102183.58
2022-10-19T10:02:21.774Z,102183.33
2022-10-19T10:05:04.483Z,102189.14
2022-10-19T10:07:39.980Z,102192.69
2022-10-19T10:10:28.168Z,102188.61
2022-10-19T10:13:02.819Z,102190.67
2022-10-19T10:15:44.121Z,102188.95
2022-10-19T10:18:18.746Z,102185.13
2022-10-19T10:21:07.051Z,102186.84
2022-10-19T10:23:38.400Z,102184.14
2022-10-19T10:26:20.064Z,102181.20
2022-10-19T10:28:51.454Z,102185.70
2022-10-19T10:31:26.720Z,102184.36
2022-10-19T10:34:10.783Z,102183.52
2022-10-19T10:36:55.025Z,102188.65
2022-10-19T10:39:27.096Z,102186.84
2022-10-19T10:42:03.095Z,102182.13
2022-10-19T10:44:36.845Z,102187.40
2022-10-19T10:47:14.919Z,102189.61
2022-10-19T10:49:54.387Z,102186.08
2022-10-19T10:52:27.832Z,102186.71
2022-10-19T10:55:05.220Z,102186.16
2022-10-19T10:57:39.778Z,102185.65
2022-10-19T11:00:15.488Z,102182.70
2022-10-19T11:02:53.236Z,102178.94
2022-10-19T11:05:27.634Z,102175.60
2022-10-19T11:08:04.615Z,102167.21
2022-10-19T11:10:40.582Z,102168.80
2022-10-19T11:13:15.537Z,102169.14
2022-10-19T11:15:54.157Z,102168.80
2022-10-19T11:18:28.758Z,102167.57
2022-10-19T11:21:07.602Z,102164.66
2022-10-19T11:23:55.408Z,102162.91
2022-10-19T11:26:48.601Z,102157.39
2022-10-19T11:29:39.370Z,102152.48
2022-10-19T11:32:20.999Z,102146.90
2022-10-19T11:35:05.835Z,102145.52
2022-10-19T11:37:49.830Z,102136.51
2022-10-19T11:40:40.278Z,102131.88
2022-10-19T11:43:24.873Z,102123.02
2022-10-19T11:46:06.136Z,102118.55
2022-10-19T11:48:55.029Z,102116.39
2022-10-19T11:51:35.033Z,102109.61
2022-10-19T11:54:19.739Z,102108.77
2022-10-19T11:57:04.017Z,102101.17
2022-10-19T11:59:50.851Z,102094.67
2022-10-19T12:02:44.023Z,102093.43
2022-10-19T12:05:19.471Z,102092.46
2022-10-19T12:08:04.135Z,102091.23
2022-10-19T12:10:44.706Z,102089.31
2022-10-19T12:13:20.902Z,102085.63
2022-10-19T12:15:54.679Z,102083.64
2022-10-19T12:18:30.792Z,102075.48
2022-10-19T12:21:03.724Z,102078.33
2022-10-19T12:23:37.485Z,102073.86
2022-10-19T12:26:10.491Z,102075.29
2022-10-19T12:28:43.557Z,102073.80
2022-10-19T12:31:15.238Z,102074.17
2022-10-19T12:33:51.624Z,102069.66
2022-10-19T12:36:32.878Z,102071.29
2022-10-19T12:39:11.395Z,102070.05
2022-10-19T12:41:53.274Z,102075.77
2022-10-19T12:44:58.688Z,102074.53
2022-10-19T12:47:30.016Z,102066.02
2022-10-19T12:50:01.491Z,102061.57
2022-10-19T12:52:40.863Z,102059.19
2022-10-19T12:55:27.082Z,102058.68
2022-10-19T12:58:04.136Z,102059.39
2022-10-19T13:00:37.304Z,102052.39
2022-10-19T13:03:17.079Z,102053.71
2022-10-19T13:05:58.571Z,102047.70
2022-10-19T13:08:38.907Z,102046.87
2022-10-19T13:11:14.647Z,102045.05
2022-10-19T13:13:56.854Z,102048.94
2022-10-19T13:16:56.820Z,102044.36
2022-10-19T13:19:27.737Z,102042.42
2022-10-19T13:22:24.636Z,102036.70
2022-10-19T13:25:28.099Z,102033.14
2022-10-19T13:28:02.957Z,102037.66
2022-10-19T13:31:06.103Z,102038.30
2022-10-19T13:33:56.355Z,102035.31
2022-10-19T13:36:27.973Z,102032.80
2022-10-19T13:39:17.298Z,102027.16
2022-10-19T13:41:53.925Z,102023.48
2022-10-19T13:44:35.290Z,102020.13
2022-10-19T13:47:31.347Z,102015.27
2022-10-19T13:50:21.688Z,102013.40
2022-10-19T13:53:31.462Z,102017.84
2022-10-19T13:56:16.940Z,102012.43
2022-10-19T13:59:32.562Z,102014.20
2022-10-19T14:02:36.428Z,102012.89
2022-10-19T14:05:22.134Z,102012.02
2022-10-19T14:08:04.923Z,102013.65
2022-10-19T14:10:56.319Z,102014.70
2022-10-19T14:13:27.609Z,102012.59
2022-10-19T14:16:00.556Z,102008.54
2022-10-19T14:18:32.797Z,102008.48
2022-10-19T14:21:05.852Z,102010.35
2022-10-19T14:23:39.821Z,102009.98
2022-10-19T14:26:15.821Z,102006.97
2022-10-19T14:28:46.317Z,102003.02
2022-10-19T14:31:22.613Z,102006.51
2022-10-19T14:33:57.573Z,102007.01
2022-10-19T14:36:34.334Z,102003.75
2022-10-19T14:39:05.474Z,102003.02
2022-10-19T14:41:38.413Z,102001.85
2022-10-19T14:44:31.163Z,101992.52
2022-10-19T14:47:03.481Z,101991.57
2022-10-19T14:49:34.511Z,101987.32
2022-10-19T14:52:06.842Z,101989.95
2022-10-19T14:54:42.649Z,101986.33
2022-10-19T14:57:18.276Z,101988.38
2022-10-19T14:59:51.131Z,101988.66
2022-10-19T15:02:25.021Z,101988.00
2022-10-19T15:04:56.660Z,101984.08
2022-10-19T15:07:31.441Z,101986.64
2022-10-19T15:10:05.156Z,101991.11
2022-10-19T15:12:41.318Z,101986.16
2022-10-19T15:15:18.847Z,101987.34
2022-10-19T15:17:56.887Z,101994.77
2022-10-19T15:20:31.371Z,101992.67
2022-10-19T15:23:23.773Z,101990.14
2022-10-19T15:26:09.572Z,101984.23
2022-10-19T15:28:43.436Z,101978.67
2022-10-19T15:31:26.317Z,101976.25
2022-10-19T15:33:59.198Z,101978.55
2022-10-19T15:36:31.080Z,101980.48
2022-10-19T15:39:18.089Z,101980.81
2022-10-19T15:41:55.880Z,101976.45
2022-10-19T15:44:41.088Z,101978.48
2022-10-19T15:47:24.644Z,101975.41
2022-10-19T15:50:00.656Z,101969.50
2022-10-19T15:52:33.494Z,101977.53
2022-10-19T15:55:04.542Z,101978.25
2022-10-19T15:57:36.926Z,101976.23
2022-10-19T16:00:15.726Z,101970.27
2022-10-19T16:02:46.599Z,101966.64
2022-10-19T16:05:17.318Z,101965.36
2022-10-19T16:07:48.202Z,101961.50
2022-10-19T16:10:20.376Z,101956.88
2022-10-19T16:12:50.864Z,101957.92
2022-10-19T16:15:23.690Z,101949.79
2022-10-19T16:17:57.549Z,101955.15
2022-10-19T16:20:29.764Z,101954.10
2022-10-19T16:23:00.559Z,101949.86
2022-10-19T16:25:31.403Z,101950.32
2022-10-19T16:28:02.117Z,101953.62
2022-10-19T16:30:32.680Z,101947.55
2022-10-19T16:33:03.684Z,101942.77
2022-10-19T16:35:34.742Z,101944.76
2022-10-19T16:38:05.287Z,101937.52
2022-10-19T16:40:36.027Z,101941.56
2022-10-19T16:43:06.826Z,101942.20
2022-10-19T16:45:37.237Z,101940.33
2022-10-19T16:48:08.432Z,101943.73
2022-10-19T16:50:39.144Z,101942.20
2022-10-19T16:53:11.291Z,101947.55
2022-10-19T16:55:42.243Z,101946.73
2022-10-19T16:58:12.625Z,101947.64
2022-10-19T17:00:42.984Z,101943.66
2022-10-19T17:03:13.458Z,101944.66
2022-10-19T17:05:44.247Z,101940.67
2022-10-19T17:08:14.955Z,101943.48
2022-10-19T17:10:45.434Z,101940.71
2022-10-19T17:13:16.157Z,101943.82
2022-10-19T17:15:46.460Z,101943.70
2022-10-19T17:20:55.626Z,101942.22
2022-10-19T17:23:26.188Z,101940.82
2022-10-19T17:25:56.837Z,101945.96
2022-10-19T17:28:27.880Z,101949.27
2022-10-19T17:31:03.177Z,101949.08
2022-10-19T17:33:34.117Z,101948.45
2022-10-19T17:36:10.490Z,101950.23
2022-10-19T17:38:41.314Z,101950.64
2022-10-19T17:41:14.112Z,101943.66
2022-10-19T17:43:46.454Z,101940.17
2022-10-19T17:46:18.072Z,101944.24
2022-10-19T17:48:48.582Z,101945.80
2022-10-19T17:51:21.412Z,101944.71
2022-10-19T17:53:52.309Z,101941.57
2022-10-19T17:56:23.865Z,101938.67
2022-10-19T17:58:54.269Z,101942.17
2022-10-19T18:01:25.933Z,101939.85
2022-10-19T18:03:56.873Z,101944.16
2022-10-19T18:06:29.525Z,101942.52
2022-10-19T18:09:01.405Z,101943.18
2022-10-19T18:11:34.529Z,101942.13
2022-10-19T18:14:05.575Z,101946.48
2022-10-19T18:16:38.495Z,101943.85
2022-10-19T18:19:10.137Z,101950.33
2022-10-19T18:21:42.191Z,101952.23
2022-10-19T18:24:16.720Z,101956.41
2022-10-19T18:26:48.628Z,101951.67
2022-10-19T18:29:21.555Z,101951.36
2022-10-19T18:31:52.699Z,101949.56
2022-10-19T18:34:25.651Z,101951.71
2022-10-19T18:36:56.766Z,101954.79
2022-10-19T18:39:27.414Z,101957.53
2022-10-19T18:41:58.093Z,101954.15
2022-10-19T18:44:29.576Z,101954.02
2022-10-19T18:47:03.029Z,101958.45
2022-10-19T18:49:33.878Z,101958.73
2022-10-19T18:52:04.793Z,101956.85
2022-10-19T18:54:35.316Z,101953.75
2022-10-19T18:57:05.849Z,101954.16
2022-10-19T18:59:36.391Z,101951.64
2022-10-19T19:02:13.619Z,101947.36
2022-10-19T19:04:53.272Z,101947.23
2022-10-19T19:07:24.005Z,101944.98
2022-10-19T19:09:54.457Z,101945.16
2022-10-19T19:12:25.233Z,101944.44
2022-10-19T19:14:55.934Z,101943.08
2022-10-19T19:17:26.814Z,101946.28
2022-10-19T19:19:57.645Z,101943.95
2022-10-19T19:22:28.307Z,101940.60
2022-10-19T19:24:59.157Z,101936.70
2022-10-19T19:27:31.869Z,101933.28
2022-10-19T19:30:05.897Z,101932.59
2022-10-19T19:32:37.277Z,101924.73
2022-10-19T19:35:09.140Z,101919.42
2022-10-19T19:37:40.031Z,101912.04
2022-10-19T19:40:12.586Z,101904.77
2022-10-19T19:42:44.786Z,101899.36
2022-10-19T19:45:15.741Z,101900.48
2022-10-19T19:47:46.909Z,101895.54
2022-10-19T19:50:18.072Z,101893.63
2022-10-19T19:52:49.083Z,101894.10
2022-10-19T19:55:19.594Z,101891.91
2022-10-19T19:57:53.829Z,101888.27
2022-10-19T20:00:25.463Z,101886.33
2022-10-19T20:02:57.335Z,101882.07
2022-10-19T20:05:29.003Z,101875.14
2022-10-19T20:08:00.150Z,101872.31
2022-10-19T20:10:31.287Z,101870.61
2022-10-19T20:13:01.969Z,101867.53
2022-10-19T20:15:32.680Z,101867.70
2022-10-19T20:18:03.915Z,101867.55
2022-10-19T20:20:34.762Z,101867.80
2022-10-19T20:23:05.494Z,101866.38
2022-10-19T20:25:38.674Z,101864.83
2022-10-19T20:28:09.136Z,101867.05
2022-10-19T20:30:40.105Z,101873.55
2022-10-19T20:33:11.107Z,101881.27
2022-10-19T20:35:41.600Z,101876.55
2022-10-19T20:38:12.338Z,101869.45
2022-10-19T20:40:43.182Z,101871.80
2022-10-19T20:43:15.253Z,101869.17
2022-10-19T20:45:45.697Z,101865.95
2022-10-19T20:48:17.263Z,101860.60
2022-10-19T20:50:47.813Z,101862.20
2022-10-19T20:53:18.422Z,101864.69
2022-10-19T20:55:49.131Z,101858.71
2022-10-19T20:58:20.290Z,101848.81
2022-10-19T21:00:51.094Z,101848.94
2022-10-19T21:03:23.746Z,101847.75
2022-10-19T21:05:54.407Z,101847.40
2022-10-19T21:08:24.881Z,101846.23
2022-10-19T21:10:55.577Z,101848.95
2022-10-19T21:13:26.049Z,101847.16
2022-10-19T21:15:57.054Z,101844.84
2022-10-19T21:18:27.794Z,101843.80
2022-10-19T21:20:58.529Z,101846.67
2022-10-19T21:23:30.137Z,101839.54
2022-10-19T21:26:00.844Z,101836.52
2022-10-19T21:28:31.647Z,101833.08
2022-10-19T21:31:06.309Z,101836.84
2022-10-19T21:33:37.324Z,101836.71
2022-10-19T21:36:09.960Z,101838.29
2022-10-19T21:38:40.837Z,101839.78
2022-10-19T21:41:13.899Z,101842.86
2022-10-19T21:43:44.974Z,101843.69
2022-10-19T21:46:18.038Z,101848.78
2022-10-19T21:48:49.070Z,101851.36
2022-10-19T21:51:27.860Z,101845.35
2022-10-19T21:53:58.281Z,101845.36
2022-10-19T21:56:29.174Z,101853.31
2022-10-19T21:59:00.018Z,101849.06
2022-10-19T22:01:36.019Z,101847.89
2022-10-19T22:04:13.067Z,101846.94
2022-10-19T22:06:44.670Z,101839.98
2022-10-19T22:09:17.713Z,101835.57
2022-10-19T22:11:49.276Z,101831.38
2022-10-19T22:14:19.717Z,101819.84
2022-10-19T22:16:50.163Z,101814.40
2022-10-19T22:19:20.566Z,101809.52
2022-10-19T22:21:50.922Z,101804.90
2022-10-19T22:24:21.588Z,101804.16
2022-10-19T22:26:51.984Z,101796.95
2022-10-19T22:29:22.426Z,101792.93
2022-10-19T22:31:53.380Z,101794.41
2022-10-19T22:34:24.036Z,101787.23
2022-10-19T22:36:54.801Z,101779.67
2022-10-19T22:39:27.781Z,101777.20
2022-10-19T22:41:58.472Z,101773.80
2022-10-19T22:44:29.183Z,101764.52
2022-10-19T22:47:00.211Z,101755.84
2022-10-19T22:49:30.790Z,101754.89
2022-10-19T22:52:01.109Z,101745.70
2022-10-19T22:54:31.732Z,101746.65
2022-10-19T22:57:02.340Z,101748.27
2022-10-19T22:59:33.191Z,101747.23
2022-10-19T23:02:04.087Z,101750.15
2022-10-19T23:04:35.178Z,101753.09
2022-10-19T23:07:06.242Z,101751.00
2022-10-19T23:09:37.267Z,101753.30
2022-10-19T23:12:08.472Z,101752.74
2022-10-19T23:14:39.125Z,101755.35
2022-10-19T23:17:09.676Z,101752.75
2022-10-19T23:19:40.001Z,101756.26
2022-10-19T23:22:10.732Z,101751.02
2022-10-19T23:24:41.870Z,101743.91
2022-10-19T23:27:13.409Z,101743.77
2022-10-19T23:29:44.261Z,101744.09
2022-10-19T23:32:14.873Z,101746.83
2022-10-19T23:34:47.573Z,101745.14
2022-10-19T23:37:18.916Z,101746.59
2022-10-19T23:39:49.237Z,101747.04
2022-10-19T23:42:19.960Z,101745.27
2022-10-19T23:44:50.604Z,101741.73
2022-10-19T23:47:20.970Z,101740.61
2022-10-19T23:49:51.684Z,101742.03
2022-10-19T23:52:22.349Z,101737.18
2022-10-19T23:54:53.425Z,101736.44
2022-10-19T23:57:24.079Z,101738.25
2022-10-19T23:59:54.452Z,101735.07
